createdAt,value
2022-10-05T00:00:16.441Z,11.80
2022-10-05T00:02:59.829Z,11.64
2022-10-05T00:05:46.890Z,11.59
2022-10-05T00:08:34.496Z,11.43
2022-10-05T00:11:18.705Z,11.52
2022-10-05T00:14:20.174Z,11.60
2022-10-05T00:17:05.291Z,11.59
2022-10-05T00:19:52.875Z,11.68
2022-10-05T00:22:36.307Z,11.69
2022-10-05T00:25:22.422Z,11.52
2022-10-05T00:28:27.763Z,11.62
2022-10-05T00:31:25.213Z,11.44
2022-10-05T00:34:08.654Z,11.25
2022-10-05T00:36:52.059Z,11.11
2022-10-05T00:39:38.816Z,11.20
2022-10-05T00:42:34.290Z,11.27
2022-10-05T00:46:12.075Z,11.32
2022-10-05T00:49:46.126Z,11.05
2022-10-05T00:53:14.155Z,11.33
2022-10-05T00:56:06.926Z,11.32
2022-10-05T00:59:21.958Z,11.18
2022-10-05T01:02:25.649Z,11.07
2022-10-05T01:06:05.558Z,11.05
2022-10-05T01:08:51.995Z,10.96
2022-10-05T01:12:03.982Z,11.12
2022-10-05T01:14:53.560Z,10.87
2022-10-05T01:18:15.486Z,10.89
2022-10-05T01:21:20.524Z,10.86
2022-10-05T01:24:44.035Z,10.88
2022-10-05T01:27:52.302Z,10.86
2022-10-05T01:30:56.249Z,10.97
2022-10-05T01:34:13.114Z,10.93
2022-10-05T01:37:34.803Z,10.83
2022-10-05T01:40:43.846Z,10.95
2022-10-05T01:43:34.237Z,10.88
2022-10-05T01:46:36.841Z,10.89
2022-10-05T01:49:35.325Z,10.95
2022-10-05T01:53:04.092Z,10.87
2022-10-05T01:56:05.341Z,10.83
2022-10-05T01:59:18.061Z,10.92
2022-10-05T02:02:11.843Z,10.92
2022-10-05T02:05:16.938Z,10.87
2022-10-05T02:08:08.395Z,10.82
2022-10-05T02:11:09.178Z,10.83
2022-10-05T02:14:08.122Z,10.80
2022-10-05T02:16:56.306Z,10.82
2022-10-05T02:19:51.532Z,11.07
2022-10-05T02:23:02.350Z,10.90
2022-10-05T02:25:49.589Z,10.85
2022-10-05T02:28:53.818Z,10.74
2022-10-05T02:31:59.087Z,11.10
2022-10-05T02:34:44.148Z,10.90
2022-10-05T02:37:57.459Z,10.91
2022-10-05T02:40:57.395Z,11.00
2022-10-05T02:43:59.990Z,10.95
2022-10-05T02:47:05.849Z,10.95
2022-10-05T02:50:49.466Z,10.86
2022-10-05T02:54:38.579Z,10.90
2022-10-05T02:57:39.045Z,10.67
2022-10-05T03:00:26.058Z,10.69
2022-10-05T03:03:33.400Z,10.40
2022-10-05T03:06:32.958Z,10.65
2022-10-05T03:09:23.873Z,10.42
2022-10-05T03:12:59.542Z,10.30
2022-10-05T03:16:40.537Z,10.24
2022-10-05T03:19:55.914Z,10.28
2022-10-05T03:23:00.097Z,10.24
2022-10-05T03:26:37.456Z,10.44
2022-10-05T03:29:30.557Z,10.38
2022-10-05T03:32:41.831Z,10.61
2022-10-05T03:35:49.369Z,10.37
2022-10-05T03:39:07.378Z,10.35
2022-10-05T03:41:59.528Z,10.36
2022-10-05T03:45:04.944Z,10.25
2022-10-05T03:48:20.162Z,10.36
2022-10-05T03:51:24.882Z,10.37
2022-10-05T03:54:53.042Z,10.43
2022-10-05T03:57:40.539Z,10.56
2022-10-05T04:00:25.779Z,10.55
2022-10-05T04:03:41.578Z,10.48
2022-10-05T04:06:32.610Z,10.31
2022-10-05T04:09:39.613Z,10.37
2022-10-05T04:12:32.493Z,10.49
2022-10-05T04:16:14.162Z,10.43
2022-10-05T04:19:26.157Z,10.28
2022-10-05T04:22:25.653Z,10.45
2022-10-05T04:25:28.300Z,10.48
2022-10-05T04:28:27.045Z,10.47
2022-10-05T04:32:05.986Z,10.56
2022-10-05T04:35:42.629Z,10.59
2022-10-05T04:38:51.585Z,10.45
2022-10-05T04:42:03.305Z,10.49
2022-10-05T04:45:22.465Z,10.61
2022-10-05T04:48:40.770Z,10.66
2022-10-05T04:51:33.614Z,10.52
2022-10-05T04:54:29.926Z,10.65
2022-10-05T04:57:24.732Z,10.83
2022-10-05T05:00:22.180Z,10.79
2022-10-05T05:03:39.213Z,10.88
2022-10-05T05:06:49.473Z,10.87
2022-10-05T05:10:06.457Z,10.71
2022-10-05T05:13:27.313Z,10.59
2022-10-05T05:16:18.319Z,10.60
2022-10-05T05:19:39.022Z,10.63
2022-10-05T05:23:02.658Z,10.68
2022-10-05T05:26:17.054Z,10.61
2022-10-05T05:29:37.154Z,10.62
2022-10-05T05:32:35.843Z,10.73
2022-10-05T05:36:04.479Z,10.63
2022-10-05T05:39:12.266Z,10.84
2022-10-05T05:42:02.727Z,10.86
2022-10-05T05:44:53.542Z,10.76
2022-10-05T05:47:52.165Z,10.76
2022-10-05T05:51:05.663Z,10.95
2022-10-05T05:54:20.686Z,11.01
2022-10-05T05:57:36.119Z,10.84
2022-10-05T06:00:36.098Z,10.99
2022-10-05T06:03:46.877Z,11.03
2022-10-05T06:06:36.357Z,11.17
2022-10-05T06:09:40.516Z,11.15
2022-10-05T06:12:49.567Z,11.17
2022-10-05T06:16:01.705Z,11.12
2022-10-05T06:18:56.658Z,11.20
2022-10-05T06:22:01.131Z,11.37
2022-10-05T06:25:25.181Z,11.44
2022-10-05T06:28:16.172Z,11.50
2022-10-05T06:31:42.342Z,11.69
2022-10-05T06:34:45.426Z,11.55
2022-10-05T06:38:01.680Z,11.52
2022-10-05T06:41:19.374Z,11.55
2022-10-05T06:44:19.903Z,11.59
2022-10-05T06:47:46.155Z,11.66
2022-10-05T06:51:31.373Z,11.81
2022-10-05T06:55:22.643Z,11.82
2022-10-05T06:58:27.828Z,11.93
2022-10-05T07:01:53.750Z,11.96
2022-10-05T07:05:01.456Z,12.00
2022-10-05T07:08:00.444Z,12.16
2022-10-05T07:11:20.066Z,12.12
2022-10-05T07:14:22.773Z,12.26
2022-10-05T07:17:18.297Z,12.24
2022-10-05T07:20:26.422Z,12.18
2022-10-05T07:24:02.092Z,12.19
2022-10-05T07:27:23.771Z,12.33
2022-10-05T07:30:15.205Z,12.49
2022-10-05T07:33:32.918Z,12.46
2022-10-05T07:37:06.163Z,12.59
2022-10-05T07:40:12.202Z,12.73
2022-10-05T07:43:11.695Z,12.66
2022-10-05T07:46:08.594Z,12.66
2022-10-05T07:49:15.716Z,12.89
2022-10-05T07:52:11.932Z,12.91
2022-10-05T07:55:23.244Z,13.08
2022-10-05T07:58:31.426Z,13.11
2022-10-05T08:01:24.487Z,13.18
2022-10-05T08:04:22.899Z,13.26
2022-10-05T08:07:15.824Z,13.48
2022-10-05T08:10:34.561Z,13.45
2022-10-05T08:13:36.661Z,13.68
2022-10-05T08:16:23.359Z,13.88
2022-10-05T08:19:29.509Z,14.02
2022-10-05T08:22:25.244Z,13.99
2022-10-05T08:25:26.570Z,13.96
2022-10-05T08:28:37.012Z,14.24
2022-10-05T08:31:27.415Z,14.33
2022-10-05T08:35:08.154Z,14.54
2022-10-05T08:37:53.082Z,14.59
2022-10-05T08:41:07.388Z,14.64
2022-10-05T08:44:05.334Z,14.80
2022-10-05T08:47:07.088Z,15.10
2022-10-05T08:50:18.003Z,15.06
2022-10-05T08:53:56.744Z,15.34
2022-10-05T08:57:10.556Z,15.39
2022-10-05T09:00:10.795Z,15.25
2022-10-05T09:03:34.485Z,15.26
2022-10-05T09:06:47.457Z,15.31
2022-10-05T09:10:23.862Z,15.39
2022-10-05T09:13:34.778Z,15.60
2022-10-05T09:17:01.572Z,15.43
2022-10-05T09:20:16.853Z,15.53
2022-10-05T09:23:19.524Z,15.78
2022-10-05T09:26:40.668Z,15.81
2022-10-05T09:29:42.480Z,15.96
2022-10-05T09:33:07.813Z,15.61
2022-10-05T09:36:15.736Z,16.03
2022-10-05T09:39:30.070Z,15.89
2022-10-05T09:42:43.924Z,15.66
2022-10-05T09:46:14.160Z,15.81
2022-10-05T09:49:36.111Z,15.86
2022-10-05T09:52:50.598Z,15.65
2022-10-05T09:56:13.065Z,16.00
2022-10-05T09:59:33.166Z,16.15
2022-10-05T10:02:34.732Z,15.69
2022-10-05T10:05:54.312Z,16.26
2022-10-05T10:09:16.286Z,16.11
2022-10-05T10:12:54.167Z,16.67
2022-10-05T10:15:49.573Z,16.39
2022-10-05T10:18:48.073Z,16.37
2022-10-05T10:22:10.077Z,16.70
2022-10-05T10:25:42.594Z,16.64
2022-10-05T10:29:01.880Z,17.09
2022-10-05T10:32:19.278Z,17.03
2022-10-05T10:35:31.805Z,16.67
2022-10-05T10:38:47.678Z,16.69
2022-10-05T10:42:06.151Z,16.78
2022-10-05T10:45:03.383Z,16.83
2022-10-05T10:48:11.043Z,16.91
2022-10-05T10:51:27.303Z,16.89
2022-10-05T10:55:01.948Z,16.77
2022-10-05T10:58:39.896Z,17.06
2022-10-05T11:01:50.169Z,17.29
2022-10-05T11:04:56.326Z,17.47
2022-10-05T11:08:28.973Z,17.60
2022-10-05T11:11:36.727Z,17.65
2022-10-05T11:15:06.935Z,17.55
2022-10-05T11:17:58.313Z,17.68
2022-10-05T11:21:23.099Z,17.75
2022-10-05T11:24:39.044Z,17.83
2022-10-05T11:27:28.352Z,18.03
2022-10-05T11:31:00.267Z,18.81
2022-10-05T11:33:55.143Z,18.28
2022-10-05T11:37:06.284Z,18.78
2022-10-05T11:40:22.689Z,18.97
2022-10-05T11:43:18.065Z,18.88
2022-10-05T11:46:16.662Z,19.32
2022-10-05T11:49:53.663Z,19.38
2022-10-05T11:52:56.510Z,19.86
2022-10-05T11:56:05.997Z,19.85
2022-10-05T11:59:11.927Z,18.94
2022-10-05T12:02:04.331Z,19.30
2022-10-05T12:05:11.637Z,19.19
2022-10-05T12:08:41.818Z,18.62
2022-10-05T12:12:19.325Z,19.13
2022-10-05T12:15:24.071Z,18.81
2022-10-05T12:18:16.891Z,18.89
2022-10-05T12:21:27.720Z,19.02
2022-10-05T12:24:35.903Z,19.78
2022-10-05T12:27:26.957Z,19.88
2022-10-05T12:30:36.422Z,19.99
2022-10-05T12:33:41.335Z,19.63
2022-10-05T12:37:03.061Z,19.61
2022-10-05T12:40:29.297Z,20.23
2022-10-05T12:44:06.961Z,20.45
2022-10-05T12:47:12.407Z,20.43
2022-10-05T12:50:24.723Z,20.72
2022-10-05T12:53:28.805Z,20.75
2022-10-05T12:56:36.819Z,20.74
2022-10-05T12:59:41.222Z,20.61
2022-10-05T13:02:46.712Z,20.60
2022-10-05T13:05:50.874Z,20.59
2022-10-05T13:09:01.590Z,20.23
2022-10-05T13:11:55.956Z,20.10
2022-10-05T13:15:04.407Z,19.85
2022-10-05T13:18:14.813Z,19.63
2022-10-05T13:21:12.568Z,19.53
2022-10-05T13:24:22.172Z,19.39
2022-10-05T13:27:23.647Z,19.50
2022-10-05T13:30:20.561Z,19.52
2022-10-05T13:33:18.083Z,19.53
2022-10-05T13:36:31.366Z,19.93
2022-10-05T13:39:35.764Z,20.37
2022-10-05T13:42:48.489Z,20.39
2022-10-05T13:45:52.784Z,20.43
2022-10-05T13:49:20.181Z,20.25
2022-10-05T13:52:18.822Z,20.28
2022-10-05T13:55:36.751Z,20.18
2022-10-05T13:58:40.692Z,20.18
2022-10-05T14:01:46.430Z,20.22
2022-10-05T14:04:46.992Z,20.10
2022-10-05T14:07:38.877Z,20.24
2022-10-05T14:10:34.182Z,19.98
2022-10-05T14:13:29.304Z,20.07
2022-10-05T14:16:12.806Z,20.33
2022-10-05T14:18:59.657Z,20.32
2022-10-05T14:22:11.545Z,19.98
2022-10-05T14:25:10.161Z,19.87
2022-10-05T14:28:02.034Z,19.80
2022-10-05T14:30:59.310Z,19.79
2022-10-05T14:33:42.773Z,19.80
2022-10-05T14:36:36.799Z,19.66
2022-10-05T14:39:27.076Z,19.81
2022-10-05T14:42:26.727Z,20.13
2022-10-05T14:45:18.699Z,19.78
2022-10-05T14:48:06.233Z,19.80
2022-10-05T14:50:55.559Z,19.81
2022-10-05T14:53:55.967Z,19.77
2022-10-05T14:57:10.068Z,20.08
2022-10-05T15:00:16.551Z,20.00
2022-10-05T15:03:05.498Z,19.68
2022-10-05T15:06:01.761Z,19.64
2022-10-05T15:09:40.970Z,19.67
2022-10-05T15:12:38.359Z,19.52
2022-10-05T15:15:37.218Z,19.37
2022-10-05T15:18:56.886Z,19.19
2022-10-05T15:22:14.166Z,19.29
2022-10-05T15:25:51.234Z,19.21
2022-10-05T15:28:51.642Z,19.04
2022-10-05T15:32:14.693Z,19.05
2022-10-05T15:35:29.012Z,19.05
2022-10-05T15:38:24.493Z,18.84
2022-10-05T15:41:30.111Z,18.89
2022-10-05T15:44:57.745Z,18.99
2022-10-05T15:47:56.067Z,18.78
2022-10-05T15:51:10.763Z,19.01
2022-10-05T15:54:43.300Z,18.75
2022-10-05T15:57:51.923Z,18.41
2022-10-05T16:00:48.024Z,18.73
2022-10-05T16:04:18.147Z,18.48
2022-10-05T16:07:22.133Z,18.42
2022-10-05T16:10:24.191Z,18.48
2022-10-05T16:13:33.525Z,18.31
2022-10-05T16:16:45.571Z,18.04
2022-10-05T16:20:42.346Z,18.14
2022-10-05T16:23:55.606Z,18.14
2022-10-05T16:26:51.027Z,17.92
2022-10-05T16:30:11.734Z,17.90
2022-10-05T16:33:21.047Z,18.07
2022-10-05T16:36:36.384Z,17.86
2022-10-05T16:39:57.353Z,17.75
2022-10-05T16:42:52.376Z,17.94
2022-10-05T16:46:21.903Z,17.64
2022-10-05T16:49:53.709Z,17.51
2022-10-05T16:52:43.823Z,17.55
2022-10-05T16:55:37.015Z,17.66
2022-10-05T16:59:00.612Z,17.53
2022-10-05T17:02:00.758Z,17.38
2022-10-05T17:05:14.333Z,17.30
2022-10-05T17:28:41.123Z,17.07
2022-10-05T17:39:23.725Z,16.69
2022-10-05T17:52:01.192Z,16.40
2022-10-05T17:55:03.021Z,16.45
2022-10-05T18:01:28.344Z,16.32
2022-10-05T18:13:16.893Z,15.64
2022-10-05T18:17:25.384Z,15.59
2022-10-05T18:21:34.913Z,15.50
2022-10-05T18:25:25.577Z,15.38
2022-10-05T18:28:40.824Z,15.42
2022-10-05T18:31:40.156Z,15.47
2022-10-05T18:34:38.596Z,15.26
2022-10-05T18:37:46.506Z,15.16
2022-10-05T18:48:08.057Z,14.99
2022-10-05T18:51:10.349Z,15.08
2022-10-05T18:54:27.153Z,15.14
2022-10-05T18:57:36.199Z,15.10
2022-10-05T19:00:25.225Z,15.12
2022-10-05T19:03:23.806Z,15.29
2022-10-05T19:06:37.943Z,15.34
2022-10-05T19:10:03.863Z,15.35
2022-10-05T19:13:26.229Z,15.37
2022-10-05T19:16:58.091Z,15.31
2022-10-05T19:20:17.344Z,15.28
2022-10-05T19:23:52.033Z,15.43
2022-10-05T19:27:04.058Z,15.30
2022-10-05T19:30:24.010Z,15.30
2022-10-05T19:33:49.575Z,15.22
2022-10-05T19:36:48.994Z,15.35
2022-10-05T19:39:41.181Z,15.24
2022-10-05T19:42:47.139Z,15.25
2022-10-05T19:45:47.492Z,15.31
2022-10-05T19:48:53.706Z,15.15
2022-10-05T19:51:50.378Z,15.10
2022-10-05T19:54:34.935Z,15.04
2022-10-05T19:57:18.675Z,14.94
2022-10-05T20:00:02.138Z,14.92
2022-10-05T20:02:50.211Z,15.00
2022-10-05T20:05:34.826Z,15.14
2022-10-05T20:08:20.885Z,15.25
2022-10-05T20:11:10.621Z,15.00
2022-10-05T20:13:54.925Z,15.12
2022-10-05T20:16:56.793Z,14.87
2022-10-05T20:19:58.903Z,15.10
2022-10-05T20:22:48.242Z,15.04
2022-10-05T20:25:32.293Z,14.97
2022-10-05T20:28:31.077Z,14.97
2022-10-05T20:31:15.127Z,15.07
2022-10-05T20:33:59.478Z,15.06
2022-10-05T20:36:44.611Z,15.03
2022-10-05T20:39:28.168Z,15.05
2022-10-05T20:42:12.561Z,14.97
2022-10-05T20:44:57.866Z,15.18
2022-10-05T20:47:42.219Z,15.15
2022-10-05T20:50:27.988Z,15.04
2022-10-05T20:53:12.172Z,14.99
2022-10-05T20:56:04.628Z,14.96
2022-10-05T20:58:48.112Z,14.96
2022-10-05T21:01:32.002Z,14.89
2022-10-05T21:04:22.670Z,14.90
2022-10-05T21:07:06.420Z,14.91
2022-10-05T21:09:50.898Z,14.96
2022-10-05T21:12:34.723Z,14.96
2022-10-05T21:15:18.139Z,14.85
2022-10-05T21:18:01.502Z,14.83
2022-10-05T21:20:48.631Z,14.86
2022-10-05T21:23:34.636Z,14.82
2022-10-05T21:26:18.039Z,14.95
2022-10-05T21:29:02.438Z,14.82
2022-10-05T21:31:45.957Z,14.97
2022-10-05T21:34:29.851Z,14.94
2022-10-05T21:37:14.101Z,14.77
2022-10-05T21:39:57.473Z,14.81
2022-10-05T21:42:40.855Z,14.90
2022-10-05T21:45:24.313Z,14.90
2022-10-05T21:48:08.202Z,14.96
2022-10-05T21:50:51.668Z,14.87
2022-10-05T21:53:41.579Z,14.81
2022-10-05T21:56:32.877Z,14.83
2022-10-05T21:59:22.857Z,14.79
2022-10-05T22:02:06.272Z,14.84
2022-10-05T22:04:49.823Z,14.88
2022-10-05T22:07:33.191Z,14.88
2022-10-05T22:10:16.678Z,14.79
2022-10-05T22:13:04.285Z,14.82
2022-10-05T22:15:47.715Z,14.75
2022-10-05T22:18:31.571Z,14.86
2022-10-05T22:21:16.610Z,14.80
2022-10-05T22:24:00.331Z,14.94
2022-10-05T22:26:48.893Z,14.85
2022-10-05T22:29:32.284Z,14.74
2022-10-05T22:32:15.698Z,14.79
2022-10-05T22:34:59.725Z,14.69
2022-10-05T22:37:44.687Z,14.79
2022-10-05T22:40:28.544Z,14.76
2022-10-05T22:43:12.643Z,14.74
2022-10-05T22:45:56.328Z,14.68
2022-10-05T22:48:40.744Z,14.71
2022-10-05T22:51:24.479Z,14.76
2022-10-05T22:54:07.948Z,14.70
2022-10-05T22:56:51.332Z,14.65
2022-10-05T22:59:34.902Z,14.70
2022-10-05T23:02:19.866Z,14.61
2022-10-05T23:05:04.751Z,14.68
